Time;durP1;ratioP1;P1;durP2;ratioP2;P2;SDS_P1;SDS_P2;PMS_P1;PMS_P2;Temp;Humidity;BMP_temperature;BMP_pressure;BME280_temperature;BME280_humidity;BME280_pressure;Samples;Min_cycle;Max_cycle;Signal;HPM_P1;HPM_P2
2022/09/30 00:01:00;;;;;;;4.27;2.60;;;;;;;18.50;68.44;96633.91;5091131;28;20196;-74
2022/09/30 00:03:27;;;;;;;5.53;2.70;;;;;;;18.74;67.80;96642.31;5106147;28;20213;-75
2022/09/30 00:05:59;;;;;;;3.63;2.90;;;;;;;18.67;67.38;96654.28;5103279;27;20248;-76
2022/09/30 00:08:34;;;;;;;3.70;2.90;;;;;;;18.71;66.96;96660.94;5098032;28;20199;-77
2022/09/30 00:11:06;;;;;;;3.27;2.77;;;;;;;18.66;67.07;96655.25;5105890;28;20232;-76
2022/09/30 00:13:35;;;;;;;2.90;2.53;;;;;;;18.55;67.49;96652.69;5094157;27;20211;-75
2022/09/30 00:16:03;;;;;;;2.90;2.60;;;;;;;18.44;68.75;96652.75;5095518;27;20226;-74
2022/09/30 00:18:31;;;;;;;4.70;2.90;;;;;;;18.48;67.91;96659.41;5101037;27;20296;-76
2022/09/30 00:20:58;;;;;;;4.50;3.00;;;;;;;18.46;68.39;96646.44;5096928;28;20201;-75
2022/09/30 00:23:25;;;;;;;3.07;2.57;;;;;;;18.38;68.89;96659.28;5098131;28;20211;-75
2022/09/30 00:26:00;;;;;;;4.47;3.20;;;;;;;18.45;69.11;96670.16;5103887;28;20732;-75
2022/09/30 00:28:28;;;;;;;5.93;3.00;;;;;;;18.40;68.53;96646.09;5109244;28;20811;-79
2022/09/30 00:31:00;;;;;;;3.97;3.20;;;;;;;18.39;68.60;96660.13;5091487;28;20221;-76
2022/09/30 00:33:28;;;;;;;5.00;3.13;;;;;;;18.33;69.10;96665.88;5109477;28;20282;-77
2022/09/30 00:35:55;;;;;;;3.50;2.90;;;;;;;18.08;69.86;96667.06;5109085;28;20217;-75
2022/09/30 00:38:22;;;;;;;4.00;3.00;;;;;;;17.95;70.76;96665.56;5109416;28;20729;-77
2022/09/30 00:40:50;;;;;;;3.13;2.83;;;;;;;17.99;70.55;96669.63;5108960;28;20195;-78
2022/09/30 00:43:38;;;;;;;4.50;3.40;;;;;;;18.03;70.51;96671.88;5109491;28;20230;-76
2022/09/30 00:46:05;;;;;;;5.07;2.70;;;;;;;17.66;71.48;96673.97;5108304;28;20189;-76
2022/09/30 00:48:37;;;;;;;4.10;3.53;;;;;;;17.46;72.78;96669.44;5113098;28;20254;-78
2022/09/30 00:51:06;;;;;;;4.90;3.43;;;;;;;17.22;73.85;96678.41;5111174;28;20191;-77
2022/09/30 00:53:43;;;;;;;5.70;3.43;;;;;;;17.02;74.98;96680.75;5110462;28;20568;-76
2022/09/30 00:56:16;;;;;;;5.10;3.67;;;;;;;17.02;74.93;96679.94;5110060;28;20224;-78
2022/09/30 00:58:51;;;;;;;4.10;3.57;;;;;;;16.82;76.10;96689.31;5109098;28;20183;-82
2022/09/30 01:01:20;;;;;;;3.93;3.40;;;;;;;16.77;76.55;96693.22;5109400;28;20221;-79
2022/09/30 01:04:04;;;;;;;4.90;3.40;;;;;;;16.62;77.19;96687.38;5111328;28;20732;-82
2022/09/30 01:06:31;;;;;;;4.80;3.50;;;;;;;16.51;77.66;96695.19;5109204;28;20764;-79
2022/09/30 01:08:59;;;;;;;4.70;3.60;;;;;;;16.54;77.99;96686.28;5109439;28;20181;-77
2022/09/30 01:11:27;;;;;;;3.97;3.53;;;;;;;16.46;78.03;96686.00;5108577;28;20265;-75
2022/09/30 01:13:59;;;;;;;4.10;3.60;;;;;;;16.46;78.01;96686.84;5109259;28;20180;-76
2022/09/30 01:16:29;;;;;;;7.60;4.00;;;;;;;16.48;77.95;96702.41;5108771;28;20192;-74
2022/09/30 01:19:14;;;;;;;4.30;3.90;;;;;;;16.50;77.93;96701.38;5108963;28;20736;-80
2022/09/30 01:21:59;;;;;;;5.80;3.97;;;;;;;16.69;77.35;96698.22;5109366;28;20184;-78
2022/09/30 01:24:35;;;;;;;4.60;3.87;;;;;;;16.74;77.10;96699.53;5108315;28;20620;-80
2022/09/30 01:27:24;;;;;;;5.93;4.30;;;;;;;16.76;76.87;96700.25;5108836;28;20304;-79
2022/09/30 01:30:05;;;;;;;7.27;4.20;;;;;;;16.75;76.91;96705.59;5108664;28;20235;-75
2022/09/30 01:32:52;;;;;;;4.70;4.20;;;;;;;16.78;76.97;96705.34;5108232;28;20237;-79
2022/09/30 01:35:29;;;;;;;6.80;4.80;;;;;;;16.88;76.36;96701.06;5090409;28;20634;-78
2022/09/30 01:38:16;;;;;;;5.27;4.30;;;;;;;16.95;76.08;96700.50;5107878;28;20280;-77
2022/09/30 01:41:09;;;;;;;6.40;4.80;;;;;;;16.99;75.84;96711.56;5107998;28;20203;-77
2022/09/30 01:43:43;;;;;;;5.50;5.00;;;;;;;16.92;76.06;96707.75;5080634;28;20237;-77
2022/09/30 01:46:19;;;;;;;7.10;4.47;;;;;;;16.84;76.54;96710.09;5107828;28;20179;-77
2022/09/30 01:49:03;;;;;;;7.47;5.10;;;;;;;16.81;76.68;96703.34;5108222;28;20747;-76
2022/09/30 01:51:43;;;;;;;6.87;4.93;;;;;;;16.79;76.83;96709.63;5107771;28;20188;-77
2022/09/30 01:54:20;;;;;;;7.57;4.93;;;;;;;16.78;76.99;96703.56;5107649;28;20222;-77
2022/09/30 01:56:57;;;;;;;6.90;4.80;;;;;;;16.87;76.30;96695.03;5092093;28;20198;-77
2022/09/30 01:59:33;;;;;;;5.67;5.17;;;;;;;17.00;75.64;96698.34;5092152;28;20192;-76
2022/09/30 02:02:14;;;;;;;6.57;5.87;;;;;;;17.03;75.67;96705.16;5109731;28;20291;-77
2022/09/30 02:05:01;;;;;;;7.87;4.60;;;;;;;17.19;75.25;96696.97;5108725;28;20181;-78
2022/09/30 02:07:37;;;;;;;6.83;4.70;;;;;;;17.46;74.70;96707.88;5107346;28;20223;-77
2022/09/30 02:10:26;;;;;;;5.90;4.57;;;;;;;17.54;73.49;96713.38;5108222;28;20189;-79
2022/09/30 02:13:17;;;;;;;21.77;4.93;;;;;;;17.62;72.59;96714.44;5089327;28;20222;-78
2022/09/30 02:15:53;;;;;;;7.20;4.40;;;;;;;17.46;72.73;96713.13;5107586;28;20184;-79
2022/09/30 02:18:40;;;;;;;4.20;3.80;;;;;;;17.47;72.11;96720.88;5107891;28;20180;-78
2022/09/30 02:21:09;;;;;;;4.27;3.87;;;;;;;17.49;72.26;96715.50;5094773;28;20222;-79
2022/09/30 02:23:40;;;;;;;4.03;3.63;;;;;;;17.55;71.92;96726.38;5087242;28;20237;-79
2022/09/30 02:26:11;;;;;;;5.63;3.90;;;;;;;17.50;72.06;96723.28;5086870;28;20658;-79
2022/09/30 02:28:45;;;;;;;4.43;3.83;;;;;;;17.49;71.64;96718.13;5087013;28;20224;-79
2022/09/30 02:31:14;;;;;;;5.67;4.20;;;;;;;17.14;72.53;96720.88;5087320;28;20186;-77
2022/09/30 02:33:53;;;;;;;5.27;4.10;;;;;;;16.76;73.67;96688.94;5086711;28;20188;-78
2022/09/30 02:36:23;;;;;;;6.10;5.50;;;;;;;17.00;74.03;96728.94;5069217;28;20189;-79
2022/09/30 02:39:00;;;;;;;5.40;4.60;;;;;;;17.07;73.29;96735.34;5086702;28;20195;-78
2022/09/30 02:41:31;;;;;;;6.47;4.00;;;;;;;16.80;74.04;96729.59;5086868;28;20312;-77
2022/09/30 02:44:01;;;;;;;5.97;4.03;;;;;;;16.75;74.49;96727.34;5086592;28;20654;-77
2022/09/30 02:46:55;;;;;;;5.63;4.40;;;;;;;16.74;74.17;96732.69;5086746;28;21054;-77
2022/09/30 02:49:43;;;;;;;5.17;4.40;;;;;;;16.48;75.43;96725.91;5087079;28;20213;-77
2022/09/30 02:52:26;;;;;;;7.80;4.27;;;;;;;16.47;75.70;96732.06;5087474;28;20188;-78
2022/09/30 02:55:11;;;;;;;4.80;4.00;;;;;;;16.67;75.26;96736.72;5100431;28;20251;-77
2022/09/30 02:57:38;;;;;;;5.87;4.23;;;;;;;16.87;74.46;96739.50;5089184;28;20292;-78
2022/09/30 03:00:06;;;;;;;6.27;4.27;;;;;;;16.90;74.24;96743.66;5093652;28;20703;-78
2022/09/30 03:02:40;;;;;;;5.60;4.70;;;;;;;16.74;74.86;96730.91;5089024;28;20244;-78
2022/09/30 03:05:09;;;;;;;5.33;4.30;;;;;;;16.68;75.44;96754.91;5086552;28;20196;-77
2022/09/30 03:07:36;;;;;;;5.33;4.60;;;;;;;16.31;76.95;96750.69;5086378;28;20222;-77
2022/09/30 03:10:14;;;;;;;8.53;5.33;;;;;;;16.01;78.26;96742.47;5096622;28;20205;-77
2022/09/30 03:13:05;;;;;;;5.10;4.53;;;;;;;15.94;78.69;96731.63;5110368;28;20188;-77
2022/09/30 03:15:48;;;;;;;6.93;4.70;;;;;;;15.98;78.68;96735.69;5111042;28;20208;-77
2022/09/30 03:18:31;;;;;;;6.47;5.60;;;;;;;16.06;78.13;96741.19;5110752;28;20263;-79
2022/09/30 03:21:37;;;;;;;7.00;5.10;;;;;;;16.10;78.11;96750.47;5111666;28;20211;-78
2022/09/30 03:24:35;;;;;;;9.07;4.70;;;;;;;16.24;77.54;96765.13;5055944;28;20241;-77
2022/09/30 03:27:31;;;;;;;6.30;4.70;;;;;;;16.48;76.46;96759.91;5111079;28;20636;-77
2022/09/30 03:30:04;;;;;;;7.80;5.00;;;;;;;16.56;75.50;96755.81;5091269;28;20197;-77
2022/09/30 03:32:38;;;;;;;7.50;4.27;;;;;;;16.69;74.95;96756.56;5113319;28;20230;-76
2022/09/30 03:35:30;;;;;;;11.60;5.33;;;;;;;16.70;74.39;96752.16;5112226;28;20183;-77
2022/09/30 03:38:31;;;;;;;7.60;4.63;;;;;;;16.33;75.20;96747.94;5111350;28;20212;-77
2022/09/30 03:41:18;;;;;;;4.90;3.90;;;;;;;16.07;76.24;96755.88;5106750;28;20254;-77
2022/09/30 03:44:04;;;;;;;5.50;4.13;;;;;;;16.10;76.20;96747.84;5109876;28;20767;-78
2022/09/30 03:46:43;;;;;;;5.73;5.00;;;;;;;15.97;76.88;96757.50;5092078;28;20192;-77
2022/09/30 03:49:18;;;;;;;7.37;4.80;;;;;;;16.02;76.91;96755.41;5110511;28;20220;-78
2022/09/30 03:51:46;;;;;;;11.23;4.50;;;;;;;16.04;76.86;96753.50;5110131;28;20187;-78
2022/09/30 03:54:16;;;;;;;5.33;4.27;;;;;;;16.29;76.04;96752.56;5092266;28;20188;-78
2022/09/30 03:56:44;;;;;;;7.17;4.20;;;;;;;16.39;75.15;96753.56;5109543;28;20219;-79
2022/09/30 03:59:16;;;;;;;4.73;3.97;;;;;;;16.41;74.91;96756.91;5113036;28;20195;-79
2022/09/30 04:01:43;;;;;;;5.70;4.57;;;;;;;16.22;75.50;96757.41;5113728;28;20295;-78
2022/09/30 04:04:11;;;;;;;10.33;4.90;;;;;;;16.28;75.54;96762.19;5110154;28;20274;-78
2022/09/30 04:06:38;;;;;;;7.67;4.90;;;;;;;16.45;75.59;96760.13;5110511;28;20216;-78
2022/09/30 04:09:06;;;;;;;8.30;4.50;;;;;;;16.54;74.74;96752.47;5109787;28;20230;-78
2022/09/30 04:11:34;;;;;;;4.77;4.30;;;;;;;16.48;74.61;96762.50;5110186;28;20586;-77
2022/09/30 04:14:02;;;;;;;6.53;4.57;;;;;;;16.54;74.03;96756.88;5109729;28;20215;-79
2022/09/30 04:16:29;;;;;;;7.10;4.00;;;;;;;16.50;74.10;96760.66;5090698;28;20192;-79
2022/09/30 04:18:58;;;;;;;8.17;4.93;;;;;;;16.49;74.12;96762.44;5091782;28;20280;-78
2022/09/30 04:21:27;;;;;;;8.97;5.10;;;;;;;16.07;74.93;96773.38;5109363;28;20192;-78
2022/09/30 04:23:55;;;;;;;9.47;5.40;;;;;;;15.67;77.16;96777.13;5091302;28;20550;-79
2022/09/30 04:26:22;;;;;;;8.70;5.00;;;;;;;15.25;78.83;96783.53;5109122;28;20596;-77
2022/09/30 04:28:51;;;;;;;6.63;4.83;;;;;;;15.04;80.31;96779.75;5111577;28;20732;-76
2022/09/30 04:31:26;;;;;;;6.17;5.17;;;;;;;14.97;80.59;96781.09;5110326;28;20184;-77
2022/09/30 04:33:55;;;;;;;8.67;5.40;;;;;;;15.00;80.24;96783.50;5109598;28;20183;-76
2022/09/30 04:36:22;;;;;;;6.90;5.07;;;;;;;15.00;80.66;96786.13;5109168;28;20215;-76
2022/09/30 04:38:52;;;;;;;7.03;4.97;;;;;;;15.05;80.57;96776.19;5109291;28;20214;-77
2022/09/30 04:41:19;;;;;;;7.43;5.33;;;;;;;15.11;80.35;96766.19;5109809;28;20275;-77
2022/09/30 04:43:49;;;;;;;8.37;6.03;;;;;;;15.23;80.07;96801.03;5109502;28;20223;-76
2022/09/30 04:46:18;;;;;;;10.17;6.50;;;;;;;15.23;79.95;96801.03;5109982;28;20609;-74
2022/09/30 04:48:47;;;;;;;7.30;5.93;;;;;;;15.09;80.08;96788.09;5108719;28;20284;-77
2022/09/30 04:51:19;;;;;;;7.53;6.23;;;;;;;15.27;79.82;96802.50;5109384;28;20231;-76
2022/09/30 04:53:47;;;;;;;8.97;6.00;;;;;;;15.41;79.54;96810.22;5108871;28;20191;-76
2022/09/30 04:56:15;;;;;;;13.67;6.23;;;;;;;15.45;79.67;96822.16;5091225;28;20195;-80
2022/09/30 04:58:43;;;;;;;9.73;5.83;;;;;;;15.56;79.17;96824.84;5112116;28;20226;-77
2022/09/30 05:01:14;;;;;;;8.47;5.60;;;;;;;15.70;78.42;96822.16;5109644;28;20198;-74
2022/09/30 05:03:42;;;;;;;6.70;5.37;;;;;;;15.80;77.46;96814.50;5109291;28;20282;-76
2022/09/30 05:06:11;;;;;;;9.40;5.90;;;;;;;16.09;76.81;96823.72;5108904;28;20249;-74
2022/09/30 05:08:38;;;;;;;6.33;5.40;;;;;;;16.49;75.22;96814.72;5109157;28;20273;-76
2022/09/30 05:11:16;;;;;;;9.47;5.70;;;;;;;16.95;73.96;96825.25;5108659;28;20266;-77
2022/09/30 05:13:44;;;;;;;7.43;5.53;;;;;;;17.19;73.42;96833.88;5090015;28;20200;-75
2022/09/30 05:16:13;;;;;;;6.63;5.10;;;;;;;17.49;71.28;96830.72;5109126;28;20199;-77
2022/09/30 05:18:44;;;;;;;7.83;4.80;;;;;;;17.50;70.47;96838.47;5108159;28;20188;-75
2022/09/30 05:21:19;;;;;;;7.50;4.83;;;;;;;17.34;71.05;96842.34;5108807;28;20192;-76
2022/09/30 05:23:46;;;;;;;9.63;5.70;;;;;;;17.12;71.83;96837.06;5108487;28;20200;-77
2022/09/30 05:26:14;;;;;;;9.57;5.10;;;;;;;16.98;72.45;96832.88;5108420;28;20280;-77
2022/09/30 05:28:41;;;;;;;7.87;5.23;;;;;;;17.25;71.69;96833.41;5108424;28;20231;-77
2022/09/30 05:31:08;;;;;;;9.60;4.90;;;;;;;17.18;71.60;96837.44;5107792;28;20300;-76
2022/09/30 05:33:35;;;;;;;10.17;5.23;;;;;;;17.49;71.12;96834.22;5107488;28;20185;-77
2022/09/30 05:36:06;;;;;;;10.80;5.17;;;;;;;17.84;69.53;96832.31;5107415;28;20209;-75
2022/09/30 05:38:35;;;;;;;11.67;5.53;;;;;;;18.20;68.73;96849.56;5107959;28;20732;-77
2022/09/30 05:41:11;;;;;;;7.73;5.30;;;;;;;18.47;67.30;96857.88;5073352;28;20266;-78
2022/09/30 05:43:40;;;;;;;12.30;5.80;;;;;;;18.67;67.01;96867.59;5107928;28;20259;-77
2022/09/30 05:46:07;;;;;;;9.30;6.57;;;;;;;18.88;66.06;96864.19;5107894;28;20191;-77
2022/09/30 05:48:34;;;;;;;11.23;6.40;;;;;;;18.90;65.83;96855.22;5089760;28;20758;-77
2022/09/30 05:51:01;;;;;;;13.50;5.47;;;;;;;19.16;64.86;96860.97;5108331;28;20194;-78
2022/09/30 05:53:30;;;;;;;7.27;5.10;;;;;;;19.05;65.23;96858.41;5107678;28;20212;-76
2022/09/30 05:55:58;;;;;;;9.63;5.47;;;;;;;19.07;64.76;96857.31;5108204;28;20220;-78
2022/09/30 05:58:26;;;;;;;8.30;5.43;;;;;;;18.87;65.65;96863.38;5114362;28;20197;-77
2022/09/30 06:00:53;;;;;;;10.27;6.37;;;;;;;18.74;66.82;96860.06;5110356;28;20187;-77
2022/09/30 06:03:20;;;;;;;8.03;5.93;;;;;;;19.12;65.31;96868.28;5107813;28;20283;-77
2022/09/30 06:05:54;;;;;;;10.53;6.20;;;;;;;19.31;64.70;96864.94;5088562;28;20564;-77
2022/09/30 06:08:21;;;;;;;7.27;5.97;;;;;;;19.54;64.38;96886.72;5088665;28;20359;-77
2022/09/30 06:10:48;;;;;;;8.73;6.20;;;;;;;19.45;64.29;96876.00;5106743;28;20263;-78
2022/09/30 06:13:24;;;;;;;7.90;5.77;;;;;;;19.29;63.68;96859.81;5107705;28;20662;-76
2022/09/30 06:15:58;;;;;;;7.17;6.00;;;;;;;19.50;64.61;96880.88;5105983;28;20209;-76
2022/09/30 06:18:30;;;;;;;8.43;5.77;;;;;;;19.68;63.77;96878.50;5106589;28;20556;-77
2022/09/30 06:20:58;;;;;;;9.70;6.50;;;;;;;19.85;62.97;96873.47;5088832;28;20187;-76
2022/09/30 06:23:25;;;;;;;9.23;6.10;;;;;;;19.92;62.45;96872.00;5106499;28;20193;-76
2022/09/30 06:25:53;;;;;;;12.67;6.53;;;;;;;20.17;62.72;96878.59;5107494;28;20183;-76
2022/09/30 06:28:21;;;;;;;12.63;6.77;;;;;;;20.34;61.63;96887.69;5106473;28;20225;-77
2022/09/30 06:30:48;;;;;;;13.37;9.70;;;;;;;20.60;61.36;96883.59;5107590;28;20238;-78
2022/09/30 06:33:16;;;;;;;9.63;6.40;;;;;;;20.82;60.67;96885.97;5107374;28;20290;-77
2022/09/30 06:35:46;;;;;;;11.87;7.20;;;;;;;20.98;59.98;96883.63;5107632;28;20241;-77
2022/09/30 06:38:14;;;;;;;8.03;5.93;;;;;;;20.98;59.88;96862.56;5090733;28;20203;-76
2022/09/30 06:40:48;;;;;;;8.93;7.10;;;;;;;21.23;59.11;96871.75;5106727;28;20294;-76
2022/09/30 06:43:19;;;;;;;11.07;6.87;;;;;;;21.16;59.30;96879.41;5107203;28;20642;-77
2022/09/30 06:45:50;;;;;;;11.47;6.27;;;;;;;21.25;59.16;96888.25;5093577;28;20705;-76
2022/09/30 06:48:18;;;;;;;9.20;5.53;;;;;;;21.39;58.67;96895.75;5111849;28;20303;-78
2022/09/30 06:51:01;;;;;;;10.27;6.00;;;;;;;21.45;57.56;96884.66;5096610;28;20272;-77
2022/09/30 06:53:29;;;;;;;8.93;5.83;;;;;;;21.58;57.41;96896.53;5096577;28;20264;-76
2022/09/30 06:55:57;;;;;;;10.93;6.43;;;;;;;21.62;58.02;96886.53;5096491;28;20188;-78
2022/09/30 06:58:24;;;;;;;9.23;6.40;;;;;;;21.69;56.79;96890.28;5114795;28;20265;-77
2022/09/30 07:01:03;;;;;;;11.77;6.47;;;;;;;21.81;57.34;96892.66;5111449;28;20196;-78
2022/09/30 07:03:33;;;;;;;8.00;6.03;;;;;;;21.94;56.48;96902.91;5111813;28;20188;-79
2022/09/30 07:06:02;;;;;;;13.60;6.23;;;;;;;22.02;55.94;96907.44;5112040;28;20182;-79
2022/09/30 07:08:34;;;;;;;9.83;6.33;;;;;;;22.17;55.20;96896.31;5092859;28;20235;-80
2022/09/30 07:11:04;;;;;;;13.10;6.53;;;;;;;22.35;55.39;96909.53;5112064;28;20638;-78
2022/09/30 07:13:32;;;;;;;12.33;8.17;;;;;;;22.42;55.20;96915.91;5111497;28;20301;-76
2022/09/30 07:15:59;;;;;;;12.53;7.33;;;;;;;22.44;54.44;96917.41;5111074;28;20304;-80
2022/09/30 07:18:26;;;;;;;13.27;8.50;;;;;;;22.22;54.65;96898.47;5077260;28;20648;-80
2022/09/30 07:20:56;;;;;;;8.50;5.23;;;;;;;22.57;54.80;96931.13;5111011;28;20199;-79
2022/09/30 07:23:27;;;;;;;8.67;4.83;;;;;;;22.42;54.21;96927.28;5094105;28;20262;-79
2022/09/30 07:25:57;;;;;;;9.10;4.77;;;;;;;22.64;54.64;96936.69;5110602;28;20277;-78
2022/09/30 07:28:30;;;;;;;10.73;5.47;;;;;;;22.52;54.63;96940.47;5110228;28;20220;-77
2022/09/30 07:31:11;;;;;;;9.77;5.77;;;;;;;22.73;53.54;96934.97;5093926;28;20277;-79
2022/09/30 07:34:07;;;;;;;12.07;6.90;;;;;;;22.85;53.38;96928.50;5100109;28;20243;-76
2022/09/30 07:36:37;;;;;;;13.40;6.80;;;;;;;22.84;54.10;96937.38;5109968;28;20570;-76
2022/09/30 07:39:07;;;;;;;14.20;5.67;;;;;;;22.75;54.13;96939.09;5109850;28;20277;-76
2022/09/30 07:41:37;;;;;;;9.93;6.10;;;;;;;22.85;54.09;96933.78;5092146;28;20620;-77
2022/09/30 07:44:11;;;;;;;12.10;6.33;;;;;;;22.54;55.48;96934.06;5091229;28;20668;-78
2022/09/30 07:46:39;;;;;;;6.87;4.50;;;;;;;22.59;55.20;96937.09;5091275;28;20188;-77
2022/09/30 07:49:11;;;;;;;6.97;5.03;;;;;;;22.32;55.63;96923.00;5110214;28;20643;-78
2022/09/30 07:51:42;;;;;;;10.33;4.97;;;;;;;22.24;56.25;96942.22;5110772;28;20277;-77
2022/09/30 07:54:19;;;;;;;7.40;5.10;;;;;;;22.50;56.12;96940.56;5111508;28;20260;-76
2022/09/30 07:56:47;;;;;;;9.63;4.40;;;;;;;22.18;56.82;96931.41;5110401;28;20213;-77
2022/09/30 07:59:37;;;;;;;10.30;4.80;;;;;;;22.38;56.32;96928.56;5110513;28;20209;-76
2022/09/30 08:02:07;;;;;;;9.43;6.20;;;;;;;22.59;55.64;96929.19;5110752;28;20184;-77
2022/09/30 08:04:34;;;;;;;8.23;4.93;;;;;;;22.75;55.40;96928.53;5109334;28;20184;-76
2022/09/30 08:07:06;;;;;;;8.50;5.37;;;;;;;23.01;54.82;96945.34;5090653;28;20207;-77
2022/09/30 08:09:33;;;;;;;7.40;4.30;;;;;;;23.00;54.76;96937.59;5108825;28;20362;-77
2022/09/30 08:12:02;;;;;;;9.37;6.40;;;;;;;23.17;54.21;96919.09;5108981;28;20617;-77
2022/09/30 08:14:29;;;;;;;8.83;4.53;;;;;;;23.14;53.87;96922.03;5091047;28;20192;-79
2022/09/30 08:16:57;;;;;;;11.60;7.57;;;;;;;23.34;53.41;96918.31;5109063;28;20259;-78
2022/09/30 08:19:25;;;;;;;7.90;5.93;;;;;;;23.57;52.43;96944.28;5091334;28;20190;-79
2022/09/30 08:21:53;;;;;;;10.50;5.47;;;;;;;23.64;52.21;96946.13;5108686;28;20200;-79
2022/09/30 08:24:21;;;;;;;10.03;5.73;;;;;;;23.83;52.14;96945.13;5109556;28;20214;-78
2022/09/30 08:26:48;;;;;;;11.33;6.17;;;;;;;23.77;52.51;96943.94;5108810;28;20197;-78
2022/09/30 08:29:15;;;;;;;7.00;4.90;;;;;;;23.76;52.19;96949.41;5090296;28;20329;-77
2022/09/30 08:31:55;;;;;;;8.13;4.87;;;;;;;23.97;51.10;96955.16;5092604;28;20203;-79
2022/09/30 08:34:22;;;;;;;8.87;4.33;;;;;;;24.11;51.11;96947.50;5108074;28;20241;-77
2022/09/30 08:36:50;;;;;;;6.73;4.33;;;;;;;24.05;50.59;96957.91;5108784;28;20181;-77
2022/09/30 08:39:16;;;;;;;9.13;4.63;;;;;;;24.01;50.94;96952.03;5108260;28;20669;-79
2022/09/30 08:41:53;;;;;;;10.37;5.10;;;;;;;24.18;49.92;96961.78;5073405;28;20291;-78
2022/09/30 08:44:37;;;;;;;6.83;4.27;;;;;;;24.33;49.70;96961.22;5108262;28;20300;-78
2022/09/30 08:47:12;;;;;;;7.80;4.37;;;;;;;24.33;49.47;96961.22;5108145;28;20671;-78
2022/09/30 08:50:03;;;;;;;4.97;3.80;;;;;;;24.64;49.44;96962.38;5108642;28;20309;-76
2022/09/30 08:52:37;;;;;;;7.30;4.37;;;;;;;24.35;50.27;96964.53;5109644;28;20198;-77
2022/09/30 08:55:21;;;;;;;6.23;4.33;;;;;;;24.39;49.11;96968.53;5089677;28;21071;-76
2022/09/30 08:57:49;;;;;;;9.60;3.97;;;;;;;24.26;49.46;96963.66;5110035;28;20553;-77
2022/09/30 09:00:18;;;;;;;9.83;5.27;;;;;;;24.22;49.13;96972.91;5107531;28;20326;-76
2022/09/30 09:02:50;;;;;;;6.67;3.63;;;;;;;24.30;48.72;96964.19;5108292;28;20701;-77
2022/09/30 09:05:55;;;;;;;8.27;3.57;;;;;;;24.09;49.91;96975.94;5089015;28;20182;-78
2022/09/30 09:08:39;;;;;;;9.83;5.30;;;;;;;24.35;49.41;96969.84;5106317;28;20281;-75
2022/09/30 09:11:22;;;;;;;5.40;3.60;;;;;;;24.23;49.10;96971.94;5108018;28;20575;-78
2022/09/30 09:14:05;;;;;;;3.90;3.60;;;;;;;24.38;48.55;96972.19;5088797;28;20735;-78
2022/09/30 09:16:41;;;;;;;9.20;4.27;;;;;;;24.55;49.00;96972.09;5107303;28;20284;-77
2022/09/30 09:19:11;;;;;;;8.57;4.60;;;;;;;24.42;49.73;96970.88;5107892;28;20213;-78
2022/09/30 09:21:56;;;;;;;8.50;4.03;;;;;;;24.74;48.02;96976.34;5107024;28;20192;-78
2022/09/30 09:24:28;;;;;;;10.53;4.20;;;;;;;24.83;47.50;96962.16;5107685;28;20193;-77
2022/09/30 09:26:57;;;;;;;6.97;3.97;;;;;;;25.03;47.42;96958.25;5107523;28;20194;-78
2022/09/30 09:29:54;;;;;;;5.40;3.47;;;;;;;25.18;47.25;96966.41;5107361;28;20234;-76
2022/09/30 09:32:25;;;;;;;8.47;4.77;;;;;;;25.19;47.08;96968.91;5089356;28;20188;-76
2022/09/30 09:35:11;;;;;;;13.77;9.33;;;;;;;25.25;46.76;96967.41;5106862;28;20187;-76
2022/09/30 09:41:03;;;;;;;12.30;6.97;;;;;;;25.43;46.33;96976.91;5107442;28;20282;-78
2022/09/30 09:43:49;;;;;;;5.53;3.53;;;;;;;25.40;46.30;96971.09;5107208;28;20261;-79
2022/09/30 09:46:16;;;;;;;5.70;4.30;;;;;;;25.53;46.38;96980.25;5089678;28;20190;-79
2022/09/30 09:48:43;;;;;;;8.77;5.83;;;;;;;25.76;46.09;96978.63;5088677;28;20207;-77
2022/09/30 09:51:20;;;;;;;7.57;3.93;;;;;;;25.98;45.53;96968.34;5107267;28;20191;-77
2022/09/30 09:53:52;;;;;;;6.00;3.77;;;;;;;26.12;44.55;96965.88;5107235;28;20244;-78
2022/09/30 09:56:22;;;;;;;5.10;4.10;;;;;;;25.98;44.71;96971.00;5107151;28;20213;-78
2022/09/30 09:59:14;;;;;;;8.53;3.40;;;;;;;25.83;44.68;96968.19;5109540;28;20199;-77
2022/09/30 10:01:49;;;;;;;5.97;3.60;;;;;;;25.65;44.62;96960.41;5107363;28;20203;-78
2022/09/30 10:04:26;;;;;;;4.70;3.87;;;;;;;25.58;45.42;96962.03;5107694;28;20243;-77
2022/09/30 10:07:10;;;;;;;4.57;3.10;;;;;;;25.65;44.87;96956.91;5107711;28;20213;-77
2022/09/30 10:09:39;;;;;;;4.03;3.40;;;;;;;25.68;45.08;96952.09;5107269;28;20250;-79
2022/09/30 10:12:06;;;;;;;6.23;3.53;;;;;;;25.90;45.23;96960.38;5107440;28;20647;-81
2022/09/30 10:14:47;;;;;;;4.63;3.30;;;;;;;26.01;44.72;96952.91;5106970;28;20188;-77
2022/09/30 10:17:25;;;;;;;3.83;3.50;;;;;;;25.99;44.76;96957.53;5106958;28;20195;-77
2022/09/30 10:19:57;;;;;;;7.57;3.40;;;;;;;26.11;43.60;96955.44;5106795;28;20668;-77
2022/09/30 10:22:29;;;;;;;7.43;3.67;;;;;;;26.24;43.51;96953.91;5087950;28;20636;-78
2022/09/30 10:25:14;;;;;;;6.30;4.63;;;;;;;26.54;43.10;96950.50;5107161;28;20194;-78
2022/09/30 10:27:49;;;;;;;9.43;3.87;;;;;;;26.85;42.26;96950.59;5106582;28;20221;-77
2022/09/30 10:30:40;;;;;;;5.20;3.07;;;;;;;26.80;42.88;96942.31;5106620;28;20244;-76
2022/09/30 10:33:20;;;;;;;9.57;3.77;;;;;;;26.79;42.59;96939.81;5107183;28;20196;-77
2022/09/30 10:36:02;;;;;;;7.33;3.67;;;;;;;26.78;43.06;96941.66;5089020;28;20202;-77
2022/09/30 10:38:32;;;;;;;6.33;3.47;;;;;;;26.76;41.86;96941.00;5106719;28;20297;-76
2022/09/30 10:41:01;;;;;;;8.80;3.70;;;;;;;26.68;42.31;96935.69;5071772;28;20286;-77
2022/09/30 10:43:36;;;;;;;6.53;4.07;;;;;;;26.61;42.61;96918.75;5106162;28;20322;-79
2022/09/30 10:46:04;;;;;;;7.47;4.07;;;;;;;27.12;42.24;96952.75;5106551;28;20183;-80
2022/09/30 10:48:53;;;;;;;6.23;3.93;;;;;;;27.13;41.72;96942.97;5106624;28;20323;-78
2022/09/30 10:51:27;;;;;;;5.53;4.67;;;;;;;27.44;41.56;96951.78;5106714;28;20192;-76
2022/09/30 10:53:56;;;;;;;6.07;4.23;;;;;;;27.53;40.72;96947.25;5106661;28;20274;-77
2022/09/30 10:56:39;;;;;;;7.07;3.50;;;;;;;27.60;39.83;96949.00;5088813;28;20233;-78
2022/09/30 10:59:18;;;;;;;4.63;3.00;;;;;;;27.33;40.32;96936.19;5108546;28;20687;-78
2022/09/30 11:01:51;;;;;;;3.47;2.97;;;;;;;27.35;40.69;96920.91;5106462;28;20256;-79
2022/09/30 11:04:31;;;;;;;5.40;4.10;;;;;;;27.47;40.65;96922.16;5107738;28;20260;-79
2022/09/30 11:07:10;;;;;;;5.10;3.77;;;;;;;27.61;40.35;96941.84;5106926;28;20305;-79
2022/09/30 11:09:46;;;;;;;6.20;3.60;;;;;;;27.41;41.05;96933.50;5088560;28;20253;-79
2022/09/30 11:12:27;;;;;;;4.87;4.20;;;;;;;27.69;40.65;96937.31;5088786;28;20287;-79
2022/09/30 11:15:17;;;;;;;6.87;3.60;;;;;;;27.31;40.17;96931.03;5106136;28;20245;-79
2022/09/30 11:18:02;;;;;;;2.80;2.60;;;;;;;26.97;40.79;96930.59;5107431;28;20211;-79
2022/09/30 11:21:00;;;;;;;6.60;3.23;;;;;;;27.29;40.24;96938.38;5107141;28;20703;-81
2022/09/30 11:23:35;;;;;;;4.13;3.07;;;;;;;27.11;39.92;96924.53;5106522;28;20184;-80
2022/09/30 11:26:05;;;;;;;9.83;3.80;;;;;;;27.38;39.57;96924.06;5096772;28;20183;-78
2022/09/30 11:28:44;;;;;;;14.23;7.67;;;;;;;27.51;39.57;96912.84;5115629;28;20187;-77
2022/09/30 11:31:35;;;;;;;4.10;3.03;;;;;;;27.67;39.19;96934.00;5110533;28;20685;-79
2022/09/30 11:34:33;;;;;;;3.03;2.40;;;;;;;27.81;38.84;96940.34;5112220;28;20180;-80
2022/09/30 11:37:30;;;;;;;7.37;4.07;;;;;;;27.88;38.82;96933.31;5110741;28;20541;-79
2022/09/30 11:40:33;;;;;;;5.30;3.60;;;;;;;27.79;39.43;96937.03;5111619;28;20222;-80
2022/09/30 11:43:33;;;;;;;5.40;3.07;;;;;;;27.81;38.63;96940.34;5069198;28;20236;-80
2022/09/30 11:46:21;;;;;;;5.87;3.33;;;;;;;27.91;38.80;96943.59;5064780;28;20624;-79
2022/09/30 11:49:16;;;;;;;4.97;3.27;;;;;;;28.02;39.01;96944.03;5110476;28;20253;-78
2022/09/30 11:51:51;;;;;;;4.57;3.10;;;;;;;27.83;38.68;96933.84;5110451;28;20184;-79
2022/09/30 11:54:54;;;;;;;6.60;3.83;;;;;;;27.87;39.05;96940.47;5109879;28;20547;-79
2022/09/30 11:58:02;;;;;;;6.63;3.80;;;;;;;27.96;38.93;96944.75;5109653;28;20180;-83
2022/09/30 12:00:57;;;;;;;5.97;2.93;;;;;;;27.71;38.93;96926.47;5111398;28;20196;-77
2022/09/30 12:03:34;;;;;;;3.67;2.80;;;;;;;27.56;38.63;96920.25;5110370;28;20192;-81
2022/09/30 12:06:10;;;;;;;4.73;3.10;;;;;;;27.65;39.18;96924.53;5109918;28;20187;-78
2022/09/30 12:08:47;;;;;;;4.47;3.07;;;;;;;27.73;38.46;96917.31;5109712;28;20219;-78
2022/09/30 12:11:22;;;;;;;3.30;2.90;;;;;;;27.90;38.07;96920.66;5108946;28;20207;-78